Aviation Digital Data Service (ADDS)

Output produced by METARs form (0213 UTC 22 April 2019)
found at http://www.aviationweather.gov/metar/data/
 
Forecast for: VOBG (BANGALORE ARP , IN)
Text: TAF VOBG 220200Z 2203/2212 27010KT 8000 SCT015
Forecast period: 0300 to 1200 UTC 22 April 2019
Forecast type: FROM: standard forecast or significant change
Winds: from the W (270 degrees) at 12 MPH (10 knots; 5.1 m/s)
Visibility: 5 miles (8 km)
Ceiling: at least 12,000 feet AGL
Clouds: scattered clouds at 1500 feet AGL
Weather: no significant weather forecast for this period
Text: TEMPO 2209/2212 4000 TSRA RA SCT015 SCT020 FEW025CB
Forecast period: 0900 to 1200 UTC 22 April 2019
Forecast type: TEMPORARY: The following changes expected for less than half the time period
Visibility: 2.49 miles (4.01 km)
Ceiling: at least 12,000 feet AGL
Clouds: scattered clouds at 1500 feet AGL
scattered clouds at 2000 feet AGL
few clouds at 2500 feet AGL
Weather: TSRA RA  (rain associated with thunderstorm(s), moderate rain)